Time;durP1;ratioP1;P1;durP2;ratioP2;P2;SDS_P1;SDS_P2;PMS_P1;PMS_P2;Temp;Humidity;BMP_temperature;BMP_pressure;BME280_temperature;BME280_humidity;BME280_pressure;Samples;Min_cycle;Max_cycle;Signal;HPM_P1;HPM_P2
2021/07/19 00:02:02;;;;;;;8.13;6.00;;;15.20;99.90;;;;;;4992808;28;20142;-85
2021/07/19 00:04:36;;;;;;;9.00;6.95;;;15.10;99.90;;;;;;4993561;28;20487;-85
2021/07/19 00:07:03;;;;;;;8.68;6.35;;;15.10;99.90;;;;;;4992239;28;20073;-84
2021/07/19 00:09:32;;;;;;;10.30;7.10;;;15.00;99.90;;;;;;4992205;28;20434;-84
2021/07/19 00:12:00;;;;;;;9.60;6.60;;;15.00;99.90;;;;;;4993443;28;20047;-83
2021/07/19 00:14:28;;;;;;;8.73;6.82;;;14.90;99.90;;;;;;4991863;28;20062;-85
2021/07/19 00:16:55;;;;;;;9.60;7.53;;;14.80;99.90;;;;;;4992355;28;20089;-84
2021/07/19 00:19:22;;;;;;;8.00;7.20;;;14.70;99.90;;;;;;4992273;28;20133;-85
2021/07/19 00:21:49;;;;;;;9.10;8.07;;;14.60;99.90;;;;;;4992302;28;20053;-84
2021/07/19 00:24:16;;;;;;;7.57;6.78;;;14.60;99.90;;;;;;4992205;28;20475;-85
2021/07/19 00:26:43;;;;;;;15.35;8.50;;;14.60;99.90;;;;;;4993312;28;20046;-84
2021/07/19 00:29:10;;;;;;;9.07;7.50;;;14.50;99.90;;;;;;4992021;28;20050;-85
2021/07/19 00:31:37;;;;;;;8.65;6.90;;;14.50;99.90;;;;;;4992864;28;20053;-85
2021/07/19 00:34:04;;;;;;;9.02;7.93;;;14.40;99.90;;;;;;4993087;28;20054;-84
2021/07/19 00:36:31;;;;;;;9.45;7.85;;;14.40;99.90;;;;;;4991760;28;20050;-84
2021/07/19 00:39:00;;;;;;;13.30;8.95;;;14.40;99.90;;;;;;4993596;28;20050;-85
2021/07/19 00:41:26;;;;;;;9.73;8.43;;;14.40;99.90;;;;;;4991640;28;20061;-84
2021/07/19 00:43:53;;;;;;;9.20;7.38;;;14.30;99.90;;;;;;4992769;28;20430;-85
2021/07/19 00:46:20;;;;;;;11.85;8.00;;;14.30;99.90;;;;;;4991733;28;20491;-85
2021/07/19 00:48:48;;;;;;;8.88;7.88;;;14.30;99.90;;;;;;4992057;28;20539;-85
2021/07/19 00:51:15;;;;;;;8.55;7.70;;;14.40;99.90;;;;;;4992801;28;20396;-84
2021/07/19 00:53:41;;;;;;;13.13;8.68;;;14.40;99.90;;;;;;5007142;28;20148;-85
2021/07/19 00:56:10;;;;;;;8.93;7.75;;;14.30;99.90;;;;;;4993409;28;20062;-83
2021/07/19 00:58:38;;;;;;;10.98;8.23;;;14.20;99.90;;;;;;4995845;28;20056;-84
2021/07/19 01:01:06;;;;;;;9.10;8.20;;;14.20;99.90;;;;;;4995671;28;20054;-84
2021/07/19 01:03:34;;;;;;;11.27;8.57;;;14.20;99.90;;;;;;4995433;28;20053;-84
2021/07/19 01:06:02;;;;;;;10.75;8.50;;;14.30;99.90;;;;;;4995229;28;20140;-84
2021/07/19 01:08:29;;;;;;;15.25;9.95;;;14.30;99.90;;;;;;4995171;28;20076;-85
2021/07/19 01:10:56;;;;;;;13.57;10.05;;;14.30;99.90;;;;;;4995370;28;20129;-84
2021/07/19 01:13:23;;;;;;;13.23;8.50;;;14.30;99.90;;;;;;4995324;28;20093;-84
2021/07/19 01:15:50;;;;;;;13.85;8.75;;;14.30;99.90;;;;;;4995400;28;20074;-83
2021/07/19 01:18:17;;;;;;;11.27;9.68;;;14.30;99.90;;;;;;4996316;28;20140;-84
2021/07/19 01:21:00;;;;;;;10.20;8.23;;;14.30;99.90;;;;;;4996334;28;20042;-84
2021/07/19 01:23:32;;;;;;;10.27;9.10;;;14.30;99.90;;;;;;4994956;28;20050;-84
2021/07/19 01:26:22;;;;;;;12.50;8.02;;;14.20;99.90;;;;;;4994862;28;20570;-83
2021/07/19 01:28:54;;;;;;;10.65;8.15;;;14.20;99.90;;;;;;4996207;28;20402;-84
2021/07/19 01:31:31;;;;;;;10.13;8.30;;;14.00;99.90;;;;;;4996118;28;20052;-84
2021/07/19 01:34:10;;;;;;;10.77;8.48;;;14.00;99.90;;;;;;4994876;28;20061;-84
2021/07/19 01:36:40;;;;;;;8.63;7.72;;;14.10;99.90;;;;;;4994768;28;20074;-84
2021/07/19 01:39:08;;;;;;;10.57;7.72;;;14.10;99.90;;;;;;4995219;28;20093;-84
2021/07/19 01:41:37;;;;;;;8.88;8.07;;;14.10;99.90;;;;;;4995980;28;20081;-84
2021/07/19 01:44:06;;;;;;;12.18;8.15;;;14.10;99.90;;;;;;4995711;28;20054;-85
2021/07/19 01:46:33;;;;;;;13.30;9.45;;;14.10;99.90;;;;;;4994779;28;20046;-86
2021/07/19 01:49:05;;;;;;;10.43;8.95;;;14.00;99.90;;;;;;4994607;28;20053;-86
2021/07/19 01:51:32;;;;;;;10.20;8.85;;;14.00;99.90;;;;;;4995686;28;20506;-86
2021/07/19 01:54:00;;;;;;;9.63;8.60;;;14.10;99.90;;;;;;4994752;28;20050;-85
2021/07/19 01:56:29;;;;;;;13.35;8.82;;;14.20;99.90;;;;;;4994402;28;20050;-85
2021/07/19 01:58:59;;;;;;;11.50;9.10;;;14.30;99.90;;;;;;4994430;28;20064;-85
2021/07/19 02:01:27;;;;;;;14.50;9.35;;;14.30;99.90;;;;;;4994188;28;20263;-86
2021/07/19 02:03:55;;;;;;;13.38;10.40;;;14.30;99.90;;;;;;4995113;28;20054;-86
2021/07/19 02:06:25;;;;;;;14.45;10.10;;;14.30;99.90;;;;;;4995413;28;20050;-86
2021/07/19 02:08:56;;;;;;;16.25;10.48;;;14.40;99.90;;;;;;4994743;28;20061;-86
2021/07/19 02:11:26;;;;;;;16.92;11.77;;;14.50;99.90;;;;;;5003851;28;20113;-86
2021/07/19 02:13:54;;;;;;;13.85;11.35;;;14.50;99.90;;;;;;5001594;28;20419;-86
2021/07/19 02:16:22;;;;;;;16.17;10.63;;;14.70;99.90;;;;;;4993901;28;20050;-86
2021/07/19 02:18:50;;;;;;;10.48;9.45;;;14.80;99.90;;;;;;4995173;28;20058;-86
2021/07/19 02:21:19;;;;;;;11.30;10.05;;;14.90;99.90;;;;;;4994089;28;20057;-86
2021/07/19 02:23:47;;;;;;;13.27;8.98;;;15.00;99.90;;;;;;4993995;28;20058;-86
2021/07/19 02:26:15;;;;;;;7.93;7.20;;;15.00;99.90;;;;;;4995078;28;20054;-85
2021/07/19 02:28:43;;;;;;;12.57;7.60;;;15.10;99.90;;;;;;4993768;28;20058;-86
2021/07/19 02:31:11;;;;;;;9.75;6.95;;;15.20;99.90;;;;;;4993713;28;20065;-85
2021/07/19 02:33:39;;;;;;;9.60;7.18;;;15.20;99.90;;;;;;4994888;28;20133;-86
2021/07/19 02:36:08;;;;;;;7.82;7.10;;;15.30;99.90;;;;;;4994433;28;20050;-86
2021/07/19 02:38:35;;;;;;;8.63;7.70;;;15.30;99.90;;;;;;4994623;28;20561;-86
2021/07/19 02:41:04;;;;;;;7.75;6.97;;;15.20;99.90;;;;;;4994665;28;20057;-86
2021/07/19 02:43:31;;;;;;;7.97;7.28;;;15.30;99.90;;;;;;4993464;28;20060;-86
2021/07/19 02:45:59;;;;;;;9.07;7.88;;;15.40;99.90;;;;;;4994385;28;20505;-86
2021/07/19 02:48:29;;;;;;;7.35;6.60;;;15.50;99.90;;;;;;4993563;28;20427;-86
2021/07/19 02:50:59;;;;;;;8.93;7.18;;;15.50;99.90;;;;;;4993553;28;20117;-85
2021/07/19 02:53:30;;;;;;;8.32;6.35;;;15.50;99.90;;;;;;4994635;28;20133;-85
2021/07/19 02:56:02;;;;;;;7.05;6.35;;;15.50;99.90;;;;;;4993219;28;20490;-86
2021/07/19 02:58:29;;;;;;;6.57;5.82;;;15.50;99.90;;;;;;4993122;28;20056;-86
2021/07/19 03:00:57;;;;;;;8.05;7.13;;;15.60;99.90;;;;;;4993324;28;20104;-86
2021/07/19 03:03:26;;;;;;;5.90;5.40;;;15.60;99.90;;;;;;4993179;28;20046;-86
2021/07/19 03:06:01;;;;;;;6.85;5.82;;;15.70;99.90;;;;;;4992863;28;20121;-86
2021/07/19 03:08:33;;;;;;;7.68;6.43;;;15.70;99.90;;;;;;4993042;28;20153;-86
2021/07/19 03:11:08;;;;;;;7.88;6.18;;;15.60;99.90;;;;;;4993476;28;20050;-86
2021/07/19 03:13:36;;;;;;;8.27;5.55;;;15.70;99.90;;;;;;4993720;28;20499;-85
2021/07/19 03:16:05;;;;;;;8.30;6.10;;;15.80;99.90;;;;;;4994011;28;20560;-85
2021/07/19 03:18:36;;;;;;;5.72;4.97;;;15.80;99.90;;;;;;4993141;28;20046;-87
2021/07/19 03:21:05;;;;;;;4.93;4.53;;;15.90;99.90;;;;;;4994169;28;20058;-86
2021/07/19 03:23:36;;;;;;;9.38;5.53;;;15.90;99.90;;;;;;4992923;28;20089;-86
2021/07/19 03:26:03;;;;;;;6.55;5.20;;;15.90;99.90;;;;;;4992802;28;20077;-86
2021/07/19 03:28:31;;;;;;;6.07;5.25;;;15.90;99.90;;;;;;4994597;28;20077;-86
2021/07/19 03:30:58;;;;;;;13.82;6.00;;;15.80;99.90;;;;;;5001706;28;20496;-85
2021/07/19 03:33:26;;;;;;;7.13;5.35;;;15.90;99.90;;;;;;4993932;28;20050;-84
2021/07/19 03:35:54;;;;;;;6.97;5.43;;;15.90;99.90;;;;;;4993763;28;20141;-86
2021/07/19 03:38:22;;;;;;;8.95;5.57;;;15.80;99.90;;;;;;4992776;28;20050;-86
2021/07/19 03:40:49;;;;;;;9.95;6.05;;;15.90;99.90;;;;;;4993861;28;20054;-85
2021/07/19 03:43:16;;;;;;;11.45;4.78;;;16.00;99.90;;;;;;4993743;28;20586;-86
2021/07/19 03:45:46;;;;;;;10.05;5.22;;;16.00;99.90;;;;;;4993478;28;20046;-85
2021/07/19 03:48:17;;;;;;;6.80;5.13;;;16.10;99.90;;;;;;4992697;28;20076;-86
2021/07/19 03:50:44;;;;;;;7.07;6.47;;;16.10;99.90;;;;;;4993801;28;20054;-83
2021/07/19 03:53:13;;;;;;;5.57;5.05;;;16.10;99.90;;;;;;4992467;28;20046;-84
2021/07/19 03:55:42;;;;;;;8.60;5.55;;;16.10;99.90;;;;;;4992276;28;20549;-85
2021/07/19 03:58:11;;;;;;;9.48;5.15;;;16.00;99.90;;;;;;4992599;28;20053;-86
2021/07/19 04:00:39;;;;;;;8.63;6.05;;;16.10;99.90;;;;;;4992635;28;20090;-86
2021/07/19 04:03:18;;;;;;;7.38;5.43;;;16.10;99.90;;;;;;4992697;28;20061;-85
2021/07/19 04:05:46;;;;;;;11.80;6.55;;;16.20;99.90;;;;;;4993438;28;20050;-86
2021/07/19 04:08:14;;;;;;;6.63;5.70;;;16.20;99.90;;;;;;4992479;28;20090;-86
2021/07/19 04:10:41;;;;;;;8.80;6.00;;;16.30;99.90;;;;;;4992609;28;20154;-86
2021/07/19 04:13:09;;;;;;;11.85;5.93;;;16.20;99.90;;;;;;4992485;28;20517;-86
2021/07/19 04:15:39;;;;;;;9.55;5.95;;;16.20;99.90;;;;;;4993294;28;20128;-86
2021/07/19 04:18:06;;;;;;;15.85;6.22;;;16.20;99.90;;;;;;4993662;28;20089;-86
2021/07/19 04:20:33;;;;;;;12.48;5.63;;;16.20;99.90;;;;;;4993176;28;20201;-85
2021/07/19 04:23:00;;;;;;;8.65;6.38;;;16.20;99.90;;;;;;4992298;28;20050;-86
2021/07/19 04:25:26;;;;;;;6.35;5.28;;;16.20;99.90;;;;;;4991985;28;20046;-86
2021/07/19 04:27:54;;;;;;;7.65;6.28;;;16.20;99.90;;;;;;4992217;28;20410;-86
2021/07/19 04:30:30;;;;;;;7.10;5.90;;;16.20;99.90;;;;;;4992465;28;20050;-85
2021/07/19 04:32:57;;;;;;;10.55;6.50;;;16.20;99.90;;;;;;4997060;28;20056;-84
2021/07/19 04:35:23;;;;;;;6.55;5.95;;;16.20;99.90;;;;;;4996942;28;20229;-86
2021/07/19 04:37:52;;;;;;;8.23;6.05;;;16.20;99.90;;;;;;4995803;28;20056;-86
2021/07/19 04:40:20;;;;;;;6.78;6.05;;;16.30;99.90;;;;;;4995860;28;20073;-86
2021/07/19 04:42:47;;;;;;;6.85;6.22;;;16.30;99.90;;;;;;4996406;28;20487;-86
2021/07/19 04:45:19;;;;;;;7.55;6.40;;;16.30;99.90;;;;;;4996636;28;20060;-86
2021/07/19 04:47:47;;;;;;;14.48;6.65;;;16.30;99.90;;;;;;4995956;28;20042;-86
2021/07/19 04:50:15;;;;;;;8.57;6.00;;;16.30;99.90;;;;;;5010423;28;20506;-86
2021/07/19 04:52:42;;;;;;;12.27;7.07;;;16.30;99.90;;;;;;4997508;28;20129;-86
2021/07/19 04:55:18;;;;;;;9.88;6.22;;;16.30;99.90;;;;;;4992934;28;20056;-86
2021/07/19 04:57:49;;;;;;;10.55;6.38;;;16.40;99.90;;;;;;4995737;28;20415;-86
2021/07/19 05:00:17;;;;;;;10.95;7.65;;;16.30;99.90;;;;;;4996838;28;20141;-87
2021/07/19 05:02:46;;;;;;;9.07;6.40;;;16.30;99.90;;;;;;4995610;28;20046;-86
2021/07/19 05:05:18;;;;;;;17.52;7.43;;;16.30;99.90;;;;;;4995139;28;20054;-85
2021/07/19 05:07:46;;;;;;;9.50;7.00;;;16.30;99.90;;;;;;4996079;28;20463;-86
2021/07/19 05:10:15;;;;;;;9.82;6.50;;;16.30;99.90;;;;;;4996392;28;20082;-86
2021/07/19 05:12:46;;;;;;;10.57;7.32;;;16.40;99.90;;;;;;4995105;28;20046;-86
2021/07/19 05:15:14;;;;;;;8.23;6.55;;;16.50;99.90;;;;;;4995100;28;20062;-85
2021/07/19 05:17:41;;;;;;;10.68;6.78;;;16.60;99.90;;;;;;4997168;28;20133;-85
2021/07/19 05:20:13;;;;;;;11.85;6.43;;;16.70;99.90;;;;;;4996163;28;20084;-86
2021/07/19 05:22:51;;;;;;;8.88;6.60;;;16.80;99.90;;;;;;4995434;28;20053;-86
2021/07/19 05:25:26;;;;;;;12.93;7.53;;;16.70;99.90;;;;;;4994637;28;20570;-85
2021/07/19 05:28:13;;;;;;;10.77;6.63;;;16.80;99.90;;;;;;4995319;28;20047;-85
2021/07/19 05:30:48;;;;;;;8.48;7.07;;;16.90;99.90;;;;;;4996063;28;20487;-85
2021/07/19 05:33:16;;;;;;;10.93;6.23;;;16.90;99.90;;;;;;4994725;28;20086;-86
2021/07/19 05:35:43;;;;;;;9.68;6.80;;;16.80;99.90;;;;;;4993563;28;20360;-85
2021/07/19 05:38:10;;;;;;;12.05;7.25;;;16.90;99.90;;;;;;4995069;28;20057;-86
2021/07/19 05:40:37;;;;;;;8.90;6.88;;;16.80;99.90;;;;;;4994410;28;20042;-86
2021/07/19 05:43:04;;;;;;;7.95;7.03;;;16.70;99.90;;;;;;4994475;28;20061;-85
2021/07/19 05:45:33;;;;;;;9.63;7.57;;;16.70;99.90;;;;;;4994562;28;20050;-86
2021/07/19 05:48:00;;;;;;;14.88;13.32;;;16.80;99.90;;;;;;4994533;28;20061;-85
2021/07/19 05:50:28;;;;;;;14.35;11.10;;;16.80;99.90;;;;;;4995317;28;20046;-86
2021/07/19 05:52:56;;;;;;;14.45;9.80;;;16.90;99.90;;;;;;4995957;28;20137;-85
2021/07/19 05:55:24;;;;;;;11.95;7.00;;;16.80;99.90;;;;;;4994125;28;20121;-86
2021/07/19 05:57:52;;;;;;;10.32;7.55;;;16.80;99.90;;;;;;4996223;28;20054;-86
2021/07/19 06:00:19;;;;;;;14.18;8.98;;;16.80;99.90;;;;;;4994704;28;20050;-85
2021/07/19 06:02:46;;;;;;;13.90;7.35;;;16.60;99.90;;;;;;4993956;28;20057;-85
2021/07/19 06:05:14;;;;;;;9.13;8.18;;;16.60;99.90;;;;;;4995794;28;20054;-85
2021/07/19 06:07:41;;;;;;;16.23;8.43;;;16.60;99.90;;;;;;5005946;28;20058;-87
2021/07/19 06:10:11;;;;;;;8.25;7.28;;;16.50;99.90;;;;;;5002413;28;20050;-86
2021/07/19 06:12:39;;;;;;;18.67;9.30;;;16.50;99.90;;;;;;4995119;28;20078;-86
2021/07/19 06:15:07;;;;;;;14.43;8.55;;;16.50;99.90;;;;;;4993814;28;20046;-86
2021/07/19 06:17:36;;;;;;;14.10;9.88;;;16.40;99.90;;;;;;4994348;28;20050;-87
2021/07/19 06:20:12;;;;;;;12.52;9.20;;;16.40;99.90;;;;;;4994196;28;20057;-86
2021/07/19 06:22:40;;;;;;;16.02;10.20;;;16.30;99.90;;;;;;4995240;28;20157;-86
2021/07/19 06:25:08;;;;;;;20.77;11.07;;;16.20;99.90;;;;;;4993752;28;20129;-85
2021/07/19 06:27:35;;;;;;;19.13;12.68;;;16.00;99.90;;;;;;4994744;28;20056;-85
2021/07/19 06:30:05;;;;;;;16.77;11.20;;;15.90;99.90;;;;;;4994663;28;20050;-85
2021/07/19 06:32:32;;;;;;;23.00;12.57;;;15.80;99.90;;;;;;4993765;28;20043;-84
2021/07/19 06:34:59;;;;;;;20.00;12.90;;;15.80;99.90;;;;;;4993605;28;20050;-85
2021/07/19 06:37:26;;;;;;;21.20;11.80;;;15.80;99.90;;;;;;4994691;28;20049;-85
2021/07/19 06:39:53;;;;;;;19.77;12.82;;;15.70;99.90;;;;;;4993341;28;20058;-85
2021/07/19 06:42:23;;;;;;;17.10;12.55;;;15.70;99.90;;;;;;4993507;28;20052;-86
2021/07/19 06:44:56;;;;;;;20.85;12.98;;;15.70;99.90;;;;;;4993183;28;20058;-86
2021/07/19 06:47:27;;;;;;;20.05;11.38;;;15.70;99.90;;;;;;4994230;28;20054;-85
2021/07/19 06:49:55;;;;;;;19.10;12.23;;;15.60;99.90;;;;;;4994371;28;20085;-85
2021/07/19 06:52:22;;;;;;;14.35;11.07;;;15.60;99.90;;;;;;4992992;28;20050;-85
2021/07/19 06:54:49;;;;;;;22.00;11.45;;;15.50;99.90;;;;;;4992446;28;20576;-85
2021/07/19 06:57:17;;;;;;;19.05;10.65;;;15.50;99.90;;;;;;4992743;28;20487;-85
2021/07/19 06:59:43;;;;;;;18.80;10.90;;;15.50;99.90;;;;;;4992627;28;20057;-85
2021/07/19 07:02:10;;;;;;;15.77;10.68;;;15.30;99.90;;;;;;4992305;28;20422;-85
2021/07/19 07:04:37;;;;;;;17.95;10.45;;;15.30;99.90;;;;;;4992699;28;20077;-85
2021/07/19 07:07:05;;;;;;;15.73;10.18;;;15.30;99.90;;;;;;4992652;28;20050;-85
2021/07/19 07:09:33;;;;;;;12.98;10.55;;;15.20;99.90;;;;;;4992754;28;20046;-85
2021/07/19 07:12:17;;;;;;;20.35;11.82;;;15.20;99.90;;;;;;4992693;28;20397;-85
2021/07/19 07:14:44;;;;;;;17.50;11.05;;;15.30;99.90;;;;;;4993822;28;20110;-85
2021/07/19 07:17:11;;;;;;;16.58;11.73;;;15.20;99.90;;;;;;4993731;28;20054;-84
2021/07/19 07:19:38;;;;;;;20.05;10.88;;;15.20;99.90;;;;;;4992545;28;20129;-85
2021/07/19 07:22:04;;;;;;;17.23;10.95;;;15.20;99.90;;;;;;4993769;28;20133;-85
2021/07/19 07:24:32;;;;;;;15.80;10.93;;;15.40;99.90;;;;;;4992635;28;20050;-86
2021/07/19 07:26:58;;;;;;;15.68;10.68;;;15.50;99.90;;;;;;4995492;28;20054;-85
2021/07/19 07:29:25;;;;;;;16.02;10.50;;;15.60;99.90;;;;;;4991713;28;20501;-85
2021/07/19 07:31:52;;;;;;;15.43;10.55;;;15.70;99.90;;;;;;4991496;28;20054;-85
2021/07/19 07:34:19;;;;;;;13.32;10.07;;;15.80;99.90;;;;;;4991781;28;20074;-85
2021/07/19 07:36:46;;;;;;;15.93;10.48;;;15.80;99.90;;;;;;4991335;28;20050;-84
2021/07/19 07:39:13;;;;;;;16.02;10.48;;;15.80;99.90;;;;;;4990770;28;20189;-85
2021/07/19 07:41:39;;;;;;;15.50;10.02;;;15.80;99.90;;;;;;4991977;28;20046;-84
2021/07/19 07:44:06;;;;;;;21.60;10.80;;;15.90;99.90;;;;;;4992533;28;20145;-84
2021/07/19 07:46:33;;;;;;;15.75;10.88;;;15.80;99.90;;;;;;4992963;28;20050;-84
2021/07/19 07:49:00;;;;;;;16.15;10.55;;;15.90;99.90;;;;;;4993045;28;20133;-84
2021/07/19 07:51:26;;;;;;;14.18;10.27;;;15.80;99.90;;;;;;4992715;28;20406;-84
2021/07/19 07:53:53;;;;;;;15.77;9.98;;;15.90;99.90;;;;;;4993917;28;20077;-84
2021/07/19 07:56:20;;;;;;;18.95;10.75;;;15.90;99.90;;;;;;4993610;28;20058;-85
2021/07/19 07:58:47;;;;;;;18.48;11.70;;;15.90;99.90;;;;;;4992784;28;20085;-83
2021/07/19 08:01:14;;;;;;;14.75;9.20;;;16.00;99.90;;;;;;4992543;28;20411;-84
2021/07/19 08:03:41;;;;;;;13.88;9.82;;;16.20;99.90;;;;;;4991688;28;20086;-84
2021/07/19 08:06:08;;;;;;;15.48;9.65;;;16.40;99.90;;;;;;4995057;28;20053;-84
2021/07/19 08:08:34;;;;;;;14.65;9.88;;;16.50;99.90;;;;;;4997492;28;20088;-83
2021/07/19 08:11:02;;;;;;;15.50;10.32;;;16.50;99.90;;;;;;4995933;28;20060;-84
2021/07/19 08:13:29;;;;;;;20.35;10.07;;;16.30;99.90;;;;;;4996066;28;20141;-84
2021/07/19 08:15:56;;;;;;;17.58;9.93;;;16.20;99.90;;;;;;4995363;28;20557;-84
2021/07/19 08:18:23;;;;;;;15.07;9.85;;;15.90;99.90;;;;;;4994993;28;20042;-84
2021/07/19 08:20:50;;;;;;;21.50;10.38;;;15.80;99.90;;;;;;4996404;28;20046;-84
2021/07/19 08:23:17;;;;;;;20.10;10.60;;;15.60;99.90;;;;;;4996223;28;20414;-84
2021/07/19 08:25:43;;;;;;;19.20;10.55;;;15.50;99.90;;;;;;4997179;28;20046;-84
2021/07/19 08:28:12;;;;;;;22.27;9.82;;;15.40;99.90;;;;;;4997425;28;20053;-84
2021/07/19 08:30:38;;;;;;;18.45;9.27;;;15.40;99.90;;;;;;4996182;28;20042;-84
2021/07/19 08:33:05;;;;;;;15.57;8.63;;;15.60;99.90;;;;;;4996154;28;20078;-84
2021/07/19 08:35:32;;;;;;;18.45;9.77;;;15.90;99.90;;;;;;4995769;28;20050;-85
2021/07/19 08:38:00;;;;;;;16.67;9.25;;;16.10;99.90;;;;;;4996062;28;20058;-84
2021/07/19 08:40:27;;;;;;;18.73;9.60;;;16.30;99.90;;;;;;4997102;28;20137;-83
2021/07/19 08:42:55;;;;;;;14.13;8.48;;;16.30;99.90;;;;;;4996130;28;20052;-84
2021/07/19 08:45:22;;;;;;;16.13;9.55;;;16.40;99.90;;;;;;5002770;28;20089;-85
2021/07/19 08:47:51;;;;;;;15.00;8.50;;;16.60;99.90;;;;;;5000269;28;20579;-83
2021/07/19 08:50:20;;;;;;;14.23;9.20;;;16.70;99.90;;;;;;4996871;28;20046;-83
2021/07/19 08:52:50;;;;;;;17.55;9.52;;;16.80;99.90;;;;;;4995609;28;20133;-84
2021/07/19 08:55:18;;;;;;;18.60;8.07;;;17.10;99.90;;;;;;4996691;28;20050;-83
2021/07/19 08:57:47;;;;;;;11.20;7.43;;;17.30;99.90;;;;;;4995569;28;20047;-84
2021/07/19 09:00:16;;;;;;;15.52;8.27;;;17.40;99.90;;;;;;4995376;28;20085;-83
2021/07/19 09:02:43;;;;;;;13.68;8.57;;;17.70;99.90;;;;;;4996850;28;20476;-84
2021/07/19 09:05:11;;;;;;;13.93;8.25;;;17.60;99.90;;;;;;4996543;28;20097;-83
2021/07/19 09:07:37;;;;;;;19.00;7.90;;;18.00;99.90;;;;;;4995398;28;20391;-84
2021/07/19 09:10:06;;;;;;;11.35;7.93;;;18.20;99.90;;;;;;4995232;28;20050;-83
2021/07/19 09:12:35;;;;;;;14.80;8.00;;;18.20;99.90;;;;;;4995119;28;20545;-86
2021/07/19 09:15:03;;;;;;;14.52;8.52;;;18.00;99.90;;;;;;4996428;28;20505;-82
2021/07/19 09:17:30;;;;;;;14.57;8.35;;;17.70;99.90;;;;;;4996177;28;20046;-83
2021/07/19 09:19:57;;;;;;;14.07;8.30;;;17.70;99.90;;;;;;4995075;28;20050;-84
2021/07/19 09:22:30;;;;;;;13.00;8.43;;;18.10;99.90;;;;;;4995096;28;20083;-83
2021/07/19 09:25:15;;;;;;;13.77;8.90;;;18.20;99.90;;;;;;4995155;28;20515;-83
2021/07/19 09:27:53;;;;;;;24.08;8.95;;;18.30;99.90;;;;;;4996154;28;20407;-83
2021/07/19 09:30:28;;;;;;;17.10;8.50;;;18.20;99.90;;;;;;4995106;28;20051;-83
2021/07/19 09:33:01;;;;;;;15.73;8.20;;;18.30;99.90;;;;;;4994879;28;20055;-83
2021/07/19 09:35:30;;;;;;;14.15;8.20;;;18.70;99.90;;;;;;4994789;28;20050;-83
2021/07/19 09:38:17;;;;;;;13.98;8.35;;;18.90;99.90;;;;;;4994619;28;20487;-83
2021/07/19 09:40:56;;;;;;;12.88;7.45;;;19.20;99.90;;;;;;4994997;28;20046;-83
2021/07/19 09:43:26;;;;;;;17.27;8.30;;;19.10;99.90;;;;;;4995806;28;20137;-82
2021/07/19 09:46:08;;;;;;;14.25;7.93;;;19.40;99.90;;;;;;4994689;28;20145;-83
2021/07/19 09:48:36;;;;;;;14.25;7.53;;;19.70;99.90;;;;;;4994545;28;20054;-83
2021/07/19 09:51:04;;;;;;;14.95;7.35;;;20.10;99.90;;;;;;4994513;28;20053;-84
2021/07/19 09:53:39;;;;;;;14.15;7.55;;;20.20;99.90;;;;;;4995586;28;20050;-84
2021/07/19 09:56:24;;;;;;;14.70;7.47;;;20.40;99.90;;;;;;4994459;28;20051;-83
2021/07/19 09:59:04;;;;;;;18.88;8.35;;;20.70;99.90;;;;;;4994637;28;20128;-83
2021/07/19 10:01:36;;;;;;;11.93;7.90;;;20.40;99.90;;;;;;4994419;28;20046;-84
2021/07/19 10:04:17;;;;;;;13.32;7.18;;;20.30;99.90;;;;;;4998095;28;20451;-83
2021/07/19 10:06:46;;;;;;;11.93;7.53;;;20.30;99.90;;;;;;4996037;28;20046;-82
2021/07/19 10:09:14;;;;;;;11.27;7.47;;;20.30;99.90;;;;;;4993975;28;20134;-84
2021/07/19 10:11:46;;;;;;;13.13;7.40;;;20.70;99.90;;;;;;4994765;28;20056;-83
2021/07/19 10:14:30;;;;;;;9.38;6.82;;;20.70;99.90;;;;;;4994739;28;20074;-83
2021/07/19 10:16:59;;;;;;;7.93;6.40;;;21.20;99.90;;;;;;4993689;28;20058;-83
2021/07/19 10:19:27;;;;;;;10.88;7.25;;;21.80;99.90;;;;;;4993707;28;20086;-83
2021/07/19 10:21:55;;;;;;;13.10;6.45;;;21.80;99.90;;;;;;4993578;28;20406;-84
2021/07/19 10:24:22;;;;;;;13.27;6.70;;;22.00;99.90;;;;;;4993836;28;20430;-83
2021/07/19 10:26:50;;;;;;;10.38;6.55;;;22.30;99.90;;;;;;4994769;28;20092;-82
2021/07/19 10:29:18;;;;;;;10.65;6.95;;;22.30;99.90;;;;;;4992761;28;20050;-83
2021/07/19 10:31:45;;;;;;;15.63;7.28;;;22.30;99.90;;;;;;4994274;28;20141;-84
2021/07/19 10:34:16;;;;;;;7.80;5.78;;;23.00;99.90;;;;;;4993254;28;20101;-85
2021/07/19 10:36:57;;;;;;;9.80;5.55;;;25.30;99.90;;;;;;4994765;28;20054;-84
2021/07/19 10:39:30;;;;;;;12.25;6.85;;;27.00;99.90;;;;;;4994756;28;20084;-84
2021/07/19 10:42:03;;;;;;;10.73;6.25;;;29.00;98.60;;;;;;4993456;28;20050;-84
2021/07/19 10:44:36;;;;;;;9.90;5.82;;;29.10;94.90;;;;;;4993977;28;20054;-88
2021/07/19 10:47:18;;;;;;;7.82;6.00;;;30.40;90.20;;;;;;4993697;28;20073;-84
2021/07/19 10:50:02;;;;;;;8.13;6.55;;;30.00;83.80;;;;;;4992907;28;20518;-83
2021/07/19 10:52:34;;;;;;;14.27;7.85;;;29.90;83.00;;;;;;4992879;28;20050;-84
2021/07/19 10:55:02;;;;;;;18.52;6.75;;;30.50;79.40;;;;;;4994041;28;20507;-83
2021/07/19 10:57:44;;;;;;;9.38;6.40;;;31.20;79.40;;;;;;4994090;28;20406;-83
2021/07/19 11:00:16;;;;;;;11.98;6.55;;;31.80;73.60;;;;;;4994567;28;20054;-84
2021/07/19 11:02:43;;;;;;;11.25;6.78;;;32.30;74.20;;;;;;4993493;28;20050;-84
2021/07/19 11:05:14;;;;;;;14.57;6.40;;;30.70;70.80;;;;;;4993951;28;20495;-85
2021/07/19 11:07:43;;;;;;;13.13;6.32;;;29.60;72.30;;;;;;4993046;28;20129;-84
2021/07/19 11:10:21;;;;;;;10.73;7.00;;;27.80;77.10;;;;;;4993214;28;20082;-84
2021/07/19 11:12:52;;;;;;;10.20;6.50;;;26.60;85.00;;;;;;4993903;28;20086;-84
2021/07/19 11:15:31;;;;;;;10.57;6.53;;;28.30;82.40;;;;;;4992971;28;20066;-85
2021/07/19 11:17:58;;;;;;;11.07;7.38;;;29.50;79.20;;;;;;4993360;28;20054;-87
2021/07/19 11:20:25;;;;;;;6.93;6.05;;;28.00;77.50;;;;;;4994197;28;20046;-84
2021/07/19 11:23:00;;;;;;;12.38;8.15;;;27.20;84.00;;;;;;4997920;28;20117;-83
2021/07/19 11:25:43;;;;;;;10.43;6.90;;;26.70;84.90;;;;;;4995645;28;20051;-82
2021/07/19 11:28:17;;;;;;;23.00;8.65;;;26.00;85.20;;;;;;4993598;28;20434;-82
2021/07/19 11:31:05;;;;;;;13.50;6.72;;;25.90;88.70;;;;;;4992716;28;20380;-85
2021/07/19 11:33:37;;;;;;;7.80;6.63;;;27.50;88.20;;;;;;4994017;28;20053;-84
2021/07/19 11:36:20;;;;;;;22.67;10.18;;;28.70;81.00;;;;;;4991761;28;20446;-86
2021/07/19 11:38:47;;;;;;;10.05;6.57;;;29.40;78.30;;;;;;4992343;28;20077;-85
2021/07/19 11:41:17;;;;;;;9.02;6.82;;;28.90;80.10;;;;;;4993008;28;20517;-84
2021/07/19 11:43:46;;;;;;;14.43;7.25;;;28.20;77.30;;;;;;4992827;28;20042;-83
2021/07/19 11:46:21;;;;;;;10.40;7.18;;;26.70;82.20;;;;;;4991998;28;20054;-83
2021/07/19 11:48:49;;;;;;;8.75;7.30;;;26.40;83.50;;;;;;4992127;28;20085;-83
2021/07/19 11:51:20;;;;;;;12.88;7.63;;;26.10;83.00;;;;;;4993465;28;20403;-84
2021/07/19 11:53:47;;;;;;;9.35;7.40;;;25.30;88.20;;;;;;4992564;28;20050;-84
2021/07/19 11:56:14;;;;;;;12.05;7.63;;;25.00;87.90;;;;;;4993077;28;20085;-82
2021/07/19 11:58:49;;;;;;;11.45;7.50;;;25.20;91.20;;;;;;4993679;28;20522;-88
2021/07/19 12:01:26;;;;;;;10.80;7.32;;;24.90;88.10;;;;;;4992702;28;20057;-83
2021/07/19 12:03:58;;;;;;;10.75;7.45;;;24.20;87.90;;;;;;4992253;28;20050;-83
2021/07/19 12:06:26;;;;;;;10.65;7.80;;;24.10;93.90;;;;;;4991944;28;20081;-83
2021/07/19 12:09:05;;;;;;;15.38;8.10;;;24.40;96.50;;;;;;4992565;28;20129;-82
2021/07/19 12:11:33;;;;;;;16.77;7.78;;;24.40;95.20;;;;;;4991870;28;20064;-84
2021/07/19 12:14:04;;;;;;;8.68;7.03;;;24.50;92.90;;;;;;4993508;28;20137;-87
2021/07/19 12:16:39;;;;;;;10.43;7.57;;;24.20;92.90;;;;;;4993846;28;20074;-85
2021/07/19 12:19:07;;;;;;;13.98;8.38;;;24.20;93.60;;;;;;4992377;28;20073;-83
2021/07/19 12:21:45;;;;;;;8.43;7.50;;;24.00;92.30;;;;;;4991917;28;20447;-83
2021/07/19 12:24:14;;;;;;;8.82;7.72;;;24.20;93.40;;;;;;4993314;28;20051;-85
2021/07/19 12:26:49;;;;;;;12.98;7.57;;;24.10;93.80;;;;;;4993199;28;20488;-83
2021/07/19 12:29:18;;;;;;;15.60;9.13;;;24.00;92.60;;;;;;4991219;28;20442;-83
2021/07/19 12:31:45;;;;;;;12.02;7.85;;;23.70;94.50;;;;;;4991811;28;20133;-83
2021/07/19 12:34:15;;;;;;;13.18;8.45;;;23.60;94.20;;;;;;4991675;28;20053;-82
2021/07/19 12:36:48;;;;;;;17.45;7.65;;;23.60;95.30;;;;;;4992049;28;20055;-85
2021/07/19 12:39:16;;;;;;;11.85;8.00;;;23.70;94.80;;;;;;4993139;28;20141;-83
2021/07/19 12:41:48;;;;;;;9.07;6.88;;;23.70;93.10;;;;;;4997353;28;20105;-84
2021/07/19 12:44:15;;;;;;;11.35;8.05;;;23.80;94.20;;;;;;5000523;28;20458;-84
2021/07/19 12:46:46;;;;;;;11.32;6.53;;;23.90;94.50;;;;;;4992101;28;20054;-86
2021/07/19 12:49:25;;;;;;;12.55;8.30;;;24.10;94.30;;;;;;4992602;28;20046;-86
2021/07/19 12:52:13;;;;;;;12.77;7.47;;;24.20;94.00;;;;;;4993025;28;20062;-84